ADDS METAR Data INFO
IDs: Format: Raw Decoded Include TAF

Data at: 1605 UTC 12 Dec 2017

KTVC 121553Z 35014G27KT 6SM -SN BLSN BKN038 BKN046 M08/M16 A2992 RMK AO2 PK WND 35027/1504 SLP142 P0000 T10831161
KTVC 121453Z 35018G27KT 6SM -SN BLSN SCT036 BKN045 M08/M16 A2992 RMK AO2 PK WND 01030/1435 SLP142 P0000 60000 T10831156 51013
KTVC 121353Z 35012G30KT 6SM -SN BLSN FEW038 BKN046 M08/M16 A2990 RMK AO2 PK WND 36030/1346 SLP136 P0000 T10831156
KTVC 121253Z 35014G31KT 5SM -SN BLSN BKN038 OVC047 M09/M15 A2990 RMK AO2 PK WND 34031/1249 SLP134 P0000 T10891150 $
KTVC 121221Z 34017G24KT 7SM -SN OVC034 M08/M14 A2989 RMK AO2 PK WND 36030/1206 P0000 T10831144 $
KTVC 121153Z 34018G28KT 2SM -SN BLSN BKN026 OVC032 M08/M13 A2988 RMK AO2 PK WND 35030/1103 SNB1055 SLP128 4/008 P0000 60001 70003 T10831133 11044 21083 52013 $
KTVC 121124Z AUTO 34019G28KT 2 1/2SM -SN BKN025 OVC032 M08/M13 A2987 RMK AO2 PK WND 35030/1103 VIS 1 3/4V3 SNB1055 P0000 T10831133 $
KTVC 121104Z AUTO 35021G30KT 1 3/4SM -SN BKN025 OVC033 M08/M13 A2987 RMK AO2 PK WND 35030/1103 SNB1055 P0000 T10831133 $
KTVC 121053Z AUTO 34012G23KT 2 1/2SM HZ BKN027 OVC034 M08/M13 A2986 RMK AO2 PK WND 34033/1032 VIS 1 3/4V4 SNEMMB49SNEMM SLP123 P0000 T10781128 PWINO FZRANO $
KTVC 121046Z AUTO 33014G25KT 2SM HZ BKN025 OVC032 M08/M13 A2986 RMK AO2 PK WND 34033/1032 SNEMM P0000 T10781128 $
KTVC 121020Z AUTO 34015G26KT 1SM -SN VV020 M08/M11 A2986 RMK AO2 PK WND 34028/1004 P0000 T10831111 $
KTVC 121011Z AUTO 34013G28KT 2 1/2SM -SN OVC028 M08/M12 A2986 RMK AO2 PK WND 34028/1004 VIS 1 1/2V4 P0000 T10781122 $
KTVC 120953Z AUTO 34014G26KT 1 1/4SM -SN OVC020 M08/M12 A2986 RMK AO2 PK WND 33028/0918 SLP120 P0001 T10781117 $
KTVC 120853Z AUTO 34015G26KT 1SM -SN BKN016 OVC025 M07/M10 A2984 RMK AO2 PK WND 33034/0800 SLP115 P0000 60000 T10721100 50012 $
KTVC 120851Z AUTO 35016G26KT 1SM -SN BKN016 OVC025 M07/M10 A2984 RMK AO2 PK WND 33034/0800 P0000 $
KTVC 120841Z AUTO 34015G25KT 2SM -SN BKN018 OVC025 M07/M10 A2984 RMK AO2 PK WND 33034/0800 VIS 1 1/4V4 P0000 T10671100 $
KTVC 120830Z AUTO 34018G32KT 1/2SM SN FZFG VV014 M07/M09 A2984 RMK AO2 PK WND 33034/0800 P0000 T10721094
KTVC 120805Z AUTO 33019G34KT 1 1/4SM -SN BKN026 OVC060 M07/M10 A2983 RMK AO2 PK WND 33034/0800 P0000 T10671100
KTVC 120753Z AUTO 33014G35KT 3/4SM -SN BKN024 BKN035 OVC055 M07/M09 A2983 RMK AO2 PK WND 33035/0747 SLP111 P0000 T10671094
KTVC 120751Z AUTO 34018G35KT 3/4SM -SN BKN028 OVC055 M07/M10 A2983 RMK AO2 PK WND 33035/0747 P0000
KTVC 120739Z AUTO 32018G29KT 1 3/4SM -SN FEW023 BKN034 OVC055 M06/M11 A2982 RMK AO2 PK WND 32033/0710 P0000 T10611111
KTVC 120723Z AUTO 34021G28KT 2SM -SN FEW021 BKN026 OVC055 M06/M10 A2981 RMK AO2 PK WND 32033/0710 P0000 T10561100
KTVC 120712Z AUTO 32023G33KT 3/4SM -SN BR BKN016 OVC023 M06/M08 A2981 RMK AO2 PK WND 32033/0710 P0000 T10611083
KTVC 120703Z AUTO 34018G28KT 1/2SM SN FZFG BKN014 OVC021 M06/M08 A2980 RMK AO2 PK WND 32028/0700 P0000 T10611083
KTVC 120653Z AUTO 34016G29KT 1 1/4SM -SN BKN021 BKN027 OVC034 M06/M09 A2981 RMK AO2 PK WND 32033/0632 UPB05E19SNB0554E05B12E13B19 SLP103 P0000 T10561094
KTVC 120645Z AUTO 33016G23KT 2SM -SN BKN027 BKN033 OVC044 M06/M10 A2980 RMK AO2 PK WND 32033/0632 UPB05E19SNB0554E05B12E13B19 P0000 T10561100
KTVC 120636Z AUTO 33016G33KT 1 3/4SM -SN BKN033 OVC048 M06/M10 A2980 RMK AO2 PK WND 32033/0632 UPB05E19SNB0554E05B12E13B19 P0000 T10561100
KTVC 120553Z AUTO 33024G33KT 3SM HZ SCT034 SCT047 OVC060 M04/M10 A2978 RMK AO2 PK WND 31035/0536 SNE26 SLP095 P0000 60000 T10441100 11011 21044 53019
KTVC 120518Z AUTO 32023G32KT 4SM -SN FEW020 OVC039 M04/M08 A2977 RMK AO2 PK WND 31032/0518 P0000 T10391078
KTVC 120501Z AUTO 34020G27KT 2 1/2SM -SN FEW023 OVC030 M04/M08 A2977 RMK AO2 PK WND 33026/0500 P0000 T10391078
KTVC 120453Z AUTO 33019G30KT 1 3/4SM -SN FEW021 BKN026 OVC032 M04/M07 A2976 RMK AO2 PK WND 32030/0447 VIS 1 1/4V3 SLP088 P0000 T10391072 410111061
KTVC 120442Z AUTO 34021G28KT 2SM -SN BKN026 OVC034 M03/M07 A2976 RMK AO2 PK WND 34029/0403 VIS 1 1/2V5 P0000 T10331072
KTVC 120423Z AUTO 32016G27KT 3SM -SN SCT023 OVC032 M03/M07 A2975 RMK AO2 PK WND 34029/0403 P0000 T10281067
KTVC 120353Z AUTO 32015G28KT 4SM -SN BKN025 OVC032 M02/M06 A2974 RMK AO2 PK WND 34031/0300 SLP080 P0000 T10221061
KTVC 120331Z AUTO 33020G28KT 4SM -SN BKN027 OVC034 M02/M06 A2973 RMK AO2 PK WND 34031/0300 P0000 T10171061
KTVC 120310Z AUTO 33016G29KT 4SM -SN SCT025 OVC031 M02/M06 A2973 RMK AO2 PK WND 34031/0300 P0000 T10171061
KTVC 120253Z AUTO 32020G28KT 4SM -SN FEW015 BKN028 OVC032 M02/M06 A2973 RMK AO2 PK WND 33028/0253 SLP076 P0000 60000 T10171061 53010
KTVC 120245Z AUTO 32017G23KT 4SM -SN FEW014 SCT022 OVC028 M01/M05 A2973 RMK AO2 P0000 T10111050
KTVC 120238Z AUTO 32017G24KT 2 1/2SM -SN FEW012 BKN026 OVC031 M01/M04 A2972 RMK AO2 P0000 T10111044
KTVC 120230Z AUTO 32014KT 2SM -SN BR FEW007 BKN013 OVC031 M01/M03 A2972 RMK AO2 P0000 T10111033
KTVC 120221Z AUTO 31013KT 1 3/4SM -SN BR FEW009 BKN015 OVC031 M01/M03 A2972 RMK AO2 P0000 T10111033
KTVC 120208Z AUTO 32013KT 1SM -SN BR FEW007 BKN011 OVC025 M01/M03 A2972 RMK AO2 P0000 T10111033
KTVC 120204Z AUTO 32011KT 1 1/4SM -SN BR BKN014 BKN021 OVC025 M01/M03 A2972 RMK AO2 P0000 T10111033
KTVC 120153Z 31012KT 3SM -SN BKN020 OVC026 M01/M04 A2971 RMK AO2 SLP070 LAST P0000 T10111039
KTVC 120053Z 23005KT 6SM -SN BKN016 OVC023 M03/M05 A2970 RMK AO2 SLP066 P0000 T10281050
KTVC 112353Z 00000KT 4SM -SN OVC011 M04/M06 A2970 RMK AO2 SLP066 4/006 P0001 60001 I6000 T10391056 11039 21050 55006
KTVC 112253Z 17004KT 6SM -SN OVC014 M04/M07 A2970 RMK AO2 FZDZE29SNE2155B29 SLP066 P0000 I1000 T10441067
KTVC 112233Z 17003KT 4SM -SN OVC013 M04/M07 A2970 RMK AO2 FZDZE29SNE2155B29 P0000 I1000 T10441067
KTVC 112153Z VRB03KT 4SM -FZDZSN OVC010 M04/M07 A2971 RMK AO2 FZDZB39 SLP072 P0000 I1000 T10441067
KTVC 112145Z VRB04KT 2 1/2SM -FZDZSN OVC010 M04/M07 A2971 RMK AO2 SFC VIS 4 FZDZB39 P0000 I1000 T10441067
KTVC 112053Z 17005KT 2 1/2SM -SN BKN010 OVC015 M05/M07 A2972 RMK AO2 SLP073 P0000 60000 T10501067 58015
KTVC 112007Z VRB05KT 2 1/2SM -SN OVC018 M05/M07 A2973 RMK AO2 P0000 T10501072
KTVC 111953Z 16006KT 5SM -SN OVC019 M05/M08 A2974 RMK AO2 SLP079 P0000 T10501078
KTVC 111928Z 16006KT 4SM -SN BKN020 OVC030 M05/M08 A2975 RMK AO2 P0000 T10501083
KTVC 111853Z 15005G15KT 1 1/2SM -SN BKN026 OVC035 M05/M08 A2976 RMK AO2 SLP089 P0000 T10501083
KTVC 111831Z 15008KT 5SM -SN BKN021 OVC030 M05/M09 A2976 RMK AO2 PRESFR P0000 T10501089
KTVC 111803Z 15005KT 2 1/2SM -SN BKN022 OVC028 M05/M09 A2980 RMK AO2 P0000 T10501089
KTVC 111753Z 18003KT 5SM -SN BKN024 OVC030 M05/M08 A2981 RMK AO2 SLP104 4/006 P0001 60001 T10501083 11050 21061 56030
KTVC 111740Z VRB03KT 3SM -SN BKN030 OVC041 M05/M08 A2981 RMK AO2 P0001 T10501083
KTVC 111653Z COR 16007KT 1 1/2SM -SN OVC023 M06/M08 A2984 RMK AO2 PRESFR SLP116 P0000 T10561083
KTVC 111648Z 14006KT 1 1/2SM -SN OVC025 M06/M09 A2985 RMK AO2 P0000
KTVC 111633Z 15006KT 1 1/2SM -SN OVC031 M06/M09 A2987 RMK AO2 P0000 T10561089
KTVC 111559Z VRB06KT 1 1/2SM -SN BKN029 OVC055 M06/M09 A2989 RMK AO2 P0000 T10561089
KTVC 111553Z 17006KT 2SM -SN BKN034 OVC055 M06/M09 A2990 RMK AO2 SLP136 P0000 T10561089
KTVC 111536Z 16005KT 2SM -SN BKN033 OVC055 M06/M09 A2990 RMK AO2 P0000 T10561089
KTVC 111453Z VRB05KT 1 1/2SM -SN BR OVC019 M06/M08 A2992 RMK AO2 SNB1356 SLP143 P0000 60000 T10611083 58004
KTVC 111428Z 16005KT 1 1/2SM -SN OVC020 M06/M09 A2993 RMK AO2 SNB1356 P0000 T10611089 $
KTVC 111406Z VRB04KT 2SM -SN OVC026 M06/M10 A2993 RMK AO2 SNB1356 P0000 T10611100 $
KTVC 111353Z 15004KT 10SM BKN030 OVC038 M06/M11 A2993 RMK AO2 SLP146 T10611106 $
KTVC 111253Z VRB03KT 10SM BKN033 OVC100 M06/M11 A2994 RMK AO2 SLP148 T10611106 $
KTVC 111153Z 18003KT 10SM OVC031 M06/M11 A2994 RMK AO2 SLP147 4/005 60000 T10611106 11056 21061 58019 $
KTVC 111053Z AUTO 00000KT 10SM OVC032 M06/M11 A2997 RMK AO2 SLP158 T10611106 $
KTVC 110953Z AUTO 23003KT 10SM OVC033 M06/M11 A2997 RMK AO2 SLP159 T10561111 $
KTVC 110853Z AUTO 28003KT 10SM OVC032 M06/M11 A2999 RMK AO2 SLP166 60000 T10561111 58002 $
KTVC 110753Z AUTO 26004KT 10SM OVC032 M06/M10 A3002 RMK AO2 SLP174 T10561100 $
KTVC 110653Z AUTO 28007KT 10SM OVC034 M06/M11 A3000 RMK AO2 SNE00 SLP169 P0000 T10561111 $
KTVC 110553Z AUTO 28006KT 8SM -SN OVC032 M06/M09 A3000 RMK AO2 SNB47 SLP168 P0000 60000 T10611094 11033 21061 58001 $
KTVC 110453Z AUTO 26006KT 9SM OVC030 M06/M10 A3000 RMK AO2 SNE00B31E48 SLP170 P0000 T10561100 410171056 $